createdAt,value
2023-05-21T00:00:46.321Z,16.51
2023-05-21T00:03:49.970Z,16.66
2023-05-21T00:06:52.257Z,16.80
2023-05-21T00:09:54.971Z,16.88
2023-05-21T00:12:56.809Z,16.90
2023-05-21T00:16:00.161Z,17.01
2023-05-21T00:19:03.650Z,16.80
2023-05-21T00:22:05.813Z,16.79
2023-05-21T00:25:08.818Z,16.88
2023-05-21T00:28:11.646Z,16.78
2023-05-21T00:31:16.105Z,16.65
2023-05-21T00:34:18.229Z,16.63
2023-05-21T00:37:20.903Z,16.42
2023-05-21T00:40:22.796Z,16.51
2023-05-21T00:43:26.665Z,16.54
2023-05-21T00:46:30.391Z,16.61
2023-05-21T00:49:32.658Z,16.62
2023-05-21T00:52:41.664Z,16.49
2023-05-21T00:55:46.476Z,16.51
2023-05-21T00:58:48.731Z,16.50
2023-05-21T01:01:56.262Z,16.39
2023-05-21T01:05:00.421Z,16.43
2023-05-21T01:08:03.240Z,16.14
2023-05-21T01:11:06.529Z,16.39
2023-05-21T01:14:10.262Z,16.27
2023-05-21T01:17:14.152Z,16.16
2023-05-21T01:20:20.172Z,16.27
2023-05-21T01:23:23.609Z,16.38
2023-05-21T01:26:26.157Z,16.32
2023-05-21T01:29:28.639Z,16.20
2023-05-21T01:32:35.127Z,16.19
2023-05-21T01:35:41.953Z,16.22
2023-05-21T01:38:53.480Z,16.18
2023-05-21T01:41:56.468Z,16.24
2023-05-21T01:44:59.674Z,16.02
2023-05-21T01:48:03.641Z,16.17
2023-05-21T01:51:06.490Z,16.10
2023-05-21T01:54:09.811Z,16.10
2023-05-21T01:57:12.077Z,15.97
2023-05-21T02:00:15.174Z,15.98
2023-05-21T02:03:17.652Z,15.97
2023-05-21T02:06:20.398Z,15.96
2023-05-21T02:09:23.735Z,15.86
2023-05-21T02:12:25.982Z,15.64
2023-05-21T02:15:27.889Z,15.91
2023-05-21T02:18:29.702Z,15.80
2023-05-21T02:21:32.492Z,15.92
2023-05-21T02:24:35.721Z,15.79
2023-05-21T02:27:38.641Z,15.88
2023-05-21T02:30:41.347Z,15.87
2023-05-21T02:33:43.279Z,15.84
2023-05-21T02:36:48.506Z,15.90
2023-05-21T02:39:51.768Z,15.91
2023-05-21T02:42:55.543Z,15.92
2023-05-21T02:45:57.451Z,15.92
2023-05-21T02:48:59.406Z,15.86
2023-05-21T02:52:01.529Z,15.39
2023-05-21T02:55:05.553Z,15.78
2023-05-21T02:58:07.457Z,15.59
2023-05-21T03:01:10.369Z,15.76
2023-05-21T03:04:12.229Z,15.75
2023-05-21T03:07:15.187Z,15.70
2023-05-21T03:10:18.520Z,15.74
2023-05-21T03:13:20.464Z,15.77
2023-05-21T03:16:23.334Z,15.58
2023-05-21T03:19:25.414Z,15.65
2023-05-21T03:22:28.277Z,15.63
2023-05-21T03:25:31.664Z,15.64
2023-05-21T03:28:34.991Z,15.65
2023-05-21T03:31:36.921Z,15.72
2023-05-21T03:34:39.184Z,15.78
2023-05-21T03:37:41.130Z,15.88
2023-05-21T03:40:44.627Z,15.84
2023-05-21T03:43:46.461Z,15.96
2023-05-21T03:46:48.268Z,16.08
2023-05-21T03:49:52.663Z,16.18
2023-05-21T03:52:54.448Z,16.16
2023-05-21T03:55:57.651Z,16.27
2023-05-21T03:58:59.452Z,16.38
2023-05-21T04:02:01.378Z,16.39
2023-05-21T04:05:05.172Z,16.35
2023-05-21T04:08:07.371Z,16.51
2023-05-21T04:11:11.455Z,16.68
2023-05-21T04:14:13.312Z,16.67
2023-05-21T04:17:15.223Z,16.78
2023-05-21T04:20:18.549Z,16.99
2023-05-21T04:23:23.600Z,16.96
2023-05-21T04:26:28.150Z,17.13
2023-05-21T04:29:30.259Z,17.49
2023-05-21T04:32:33.476Z,17.85
2023-05-21T04:35:36.227Z,18.10
2023-05-21T04:38:39.921Z,18.31
2023-05-21T04:41:43.167Z,18.40
2023-05-21T04:44:46.056Z,18.41
2023-05-21T04:47:48.070Z,18.54
2023-05-21T04:50:50.020Z,18.33
2023-05-21T04:53:52.111Z,18.53
2023-05-21T04:56:55.414Z,18.57
2023-05-21T04:59:58.064Z,18.64
2023-05-21T05:03:00.169Z,18.79
2023-05-21T05:06:04.493Z,18.87
2023-05-21T05:09:06.357Z,18.96
2023-05-21T05:12:09.653Z,19.01
2023-05-21T05:15:13.813Z,19.04
2023-05-21T05:18:16.487Z,19.18
2023-05-21T05:21:18.382Z,19.29
2023-05-21T05:24:21.020Z,19.35
2023-05-21T05:27:24.328Z,19.52
2023-05-21T05:30:26.943Z,19.59
2023-05-21T05:33:28.752Z,19.69
2023-05-21T05:36:31.674Z,19.65
2023-05-21T05:39:33.686Z,19.71
2023-05-21T05:42:37.363Z,19.78
2023-05-21T05:45:39.443Z,19.89
2023-05-21T05:48:41.900Z,19.97
2023-05-21T05:51:43.716Z,20.13
2023-05-21T05:54:46.114Z,20.15
2023-05-21T05:57:49.312Z,20.23
2023-05-21T06:00:52.501Z,20.31
2023-05-21T06:03:54.476Z,20.47
2023-05-21T06:06:57.661Z,20.51
2023-05-21T06:10:02.162Z,20.64
2023-05-21T06:13:06.309Z,20.78
2023-05-21T06:16:10.014Z,20.85
2023-05-21T06:19:12.848Z,20.98
2023-05-21T06:22:14.796Z,21.16
2023-05-21T06:25:16.759Z,21.46
2023-05-21T06:28:20.175Z,21.57
2023-05-21T06:31:22.592Z,21.76
2023-05-21T06:34:24.482Z,21.88
2023-05-21T06:37:26.737Z,21.83
2023-05-21T06:40:28.668Z,21.75
2023-05-21T06:43:32.147Z,21.97
2023-05-21T06:46:34.871Z,22.03
2023-05-21T06:49:37.925Z,22.19
2023-05-21T06:52:39.843Z,22.36
2023-05-21T06:55:44.403Z,22.34
2023-05-21T06:58:47.722Z,22.34
2023-05-21T07:01:49.755Z,22.40
2023-05-21T07:04:53.739Z,22.41
2023-05-21T07:07:55.734Z,22.52
2023-05-21T07:10:57.633Z,22.70
2023-05-21T07:14:02.148Z,22.70
2023-05-21T07:17:04.471Z,22.80
2023-05-21T07:20:08.470Z,22.87
2023-05-21T07:23:10.452Z,23.01
2023-05-21T07:26:12.380Z,23.00
2023-05-21T07:29:16.082Z,23.13
2023-05-21T07:32:17.894Z,23.29
2023-05-21T07:35:20.210Z,23.29
2023-05-21T07:38:22.609Z,23.48
2023-05-21T07:41:24.468Z,23.61
2023-05-21T07:44:28.112Z,23.69
2023-05-21T07:47:30.076Z,23.87
2023-05-21T07:50:32.662Z,23.86
2023-05-21T07:53:34.606Z,23.98
2023-05-21T07:56:36.639Z,24.03
2023-05-21T07:59:44.168Z,23.74
2023-05-21T08:02:46.446Z,23.33
2023-05-21T08:05:49.293Z,23.53
2023-05-21T08:08:51.181Z,23.27
2023-05-21T08:11:53.537Z,23.75
2023-05-21T08:14:57.520Z,23.56
2023-05-21T08:17:59.515Z,23.78
2023-05-21T08:21:01.734Z,23.94
2023-05-21T08:24:03.827Z,24.07
2023-05-21T08:27:05.952Z,23.81
2023-05-21T08:30:11.782Z,24.12
2023-05-21T08:33:14.196Z,24.06
2023-05-21T08:36:16.532Z,24.27
2023-05-21T08:39:18.458Z,24.37
2023-05-21T08:42:36.899Z,24.54
2023-05-21T08:45:44.949Z,24.57
2023-05-21T08:48:47.779Z,24.62
2023-05-21T08:51:50.383Z,24.69
2023-05-21T08:54:53.276Z,24.60
2023-05-21T08:57:55.502Z,24.92
2023-05-21T09:00:58.983Z,24.91
2023-05-21T09:04:12.657Z,24.80
2023-05-21T09:07:22.919Z,24.62
2023-05-21T09:10:30.076Z,24.86
2023-05-21T09:13:33.410Z,24.66
2023-05-21T09:16:36.818Z,24.91
2023-05-21T09:19:38.838Z,25.06
2023-05-21T09:22:42.674Z,24.76
2023-05-21T09:25:46.684Z,25.00
2023-05-21T09:28:51.477Z,24.91
2023-05-21T09:31:55.216Z,24.97
2023-05-21T09:35:06.867Z,25.05
2023-05-21T09:38:09.725Z,25.13
2023-05-21T09:41:11.572Z,25.34
2023-05-21T09:44:14.456Z,24.97
2023-05-21T09:47:21.586Z,25.30
2023-05-21T09:50:25.241Z,25.24
2023-05-21T09:53:29.571Z,25.25
2023-05-21T09:56:34.638Z,25.53
2023-05-21T09:59:39.498Z,25.00
2023-05-21T10:02:44.750Z,25.36
2023-05-21T10:05:47.388Z,25.05
2023-05-21T10:08:53.787Z,25.59
2023-05-21T10:11:56.893Z,25.59
2023-05-21T10:15:03.475Z,25.57
2023-05-21T10:18:07.278Z,25.90
2023-05-21T10:21:09.474Z,26.04
2023-05-21T10:24:11.614Z,26.04
2023-05-21T10:27:14.452Z,26.06
2023-05-21T10:30:18.643Z,26.30
2023-05-21T10:33:24.429Z,26.39
2023-05-21T10:36:31.832Z,26.16
2023-05-21T10:39:34.773Z,26.37
2023-05-21T10:43:08.951Z,26.38
2023-05-21T10:46:40.536Z,26.38
2023-05-21T10:49:59.463Z,26.63
2023-05-21T10:53:13.100Z,26.82
2023-05-21T10:56:22.975Z,26.59
2023-05-21T10:59:36.607Z,26.91
2023-05-21T11:02:39.171Z,26.50
2023-05-21T11:05:52.474Z,26.80
2023-05-21T11:08:55.891Z,26.81
2023-05-21T11:11:58.984Z,26.70
2023-05-21T11:15:00.852Z,26.81
2023-05-21T11:18:02.815Z,26.73
2023-05-21T11:21:07.088Z,26.73
2023-05-21T11:24:10.976Z,26.89
2023-05-21T11:27:13.040Z,27.45
2023-05-21T11:30:17.087Z,27.46
2023-05-21T11:33:19.710Z,27.20
2023-05-21T11:36:22.925Z,27.58
2023-05-21T11:39:25.921Z,27.59
2023-05-21T11:42:29.533Z,27.23
2023-05-21T11:45:33.424Z,27.35
2023-05-21T11:48:38.090Z,27.26
2023-05-21T11:51:41.709Z,27.29
2023-05-21T11:54:50.694Z,26.86
2023-05-21T11:57:54.456Z,26.97
2023-05-21T12:00:56.996Z,26.61
2023-05-21T12:03:58.867Z,26.49
2023-05-21T12:07:04.131Z,26.71
2023-05-21T12:10:07.578Z,26.37
2023-05-21T12:13:10.145Z,26.22
2023-05-21T12:16:13.068Z,25.82
2023-05-21T12:19:17.695Z,26.10
2023-05-21T12:22:21.464Z,26.79
2023-05-21T12:25:23.540Z,26.37
2023-05-21T12:28:25.683Z,26.87
2023-05-21T12:31:30.347Z,26.56
2023-05-21T12:34:43.267Z,26.32
2023-05-21T12:37:47.327Z,27.32
2023-05-21T12:40:49.169Z,27.37
2023-05-21T12:43:52.082Z,27.34
2023-05-21T12:46:53.943Z,27.39
2023-05-21T12:50:00.513Z,27.38
2023-05-21T12:53:03.940Z,27.68
2023-05-21T12:56:12.659Z,27.22
2023-05-21T12:59:15.663Z,27.66
2023-05-21T13:02:21.959Z,27.10
2023-05-21T13:05:23.848Z,26.89
2023-05-21T13:08:27.289Z,27.37
2023-05-21T13:11:29.311Z,27.53
2023-05-21T13:14:34.384Z,27.11
2023-05-21T13:17:36.861Z,26.93
2023-05-21T13:20:38.887Z,27.66
2023-05-21T13:23:42.332Z,27.40
2023-05-21T13:26:44.219Z,27.97
2023-05-21T13:29:46.084Z,27.76
2023-05-21T13:32:48.872Z,27.40
2023-05-21T13:35:51.933Z,27.75
2023-05-21T13:38:56.555Z,27.28
2023-05-21T13:41:59.307Z,26.93
2023-05-21T13:45:01.946Z,26.79
2023-05-21T13:48:04.155Z,27.10
2023-05-21T13:51:06.829Z,27.09
2023-05-21T13:54:10.264Z,27.74
2023-05-21T13:57:12.160Z,28.06
2023-05-21T14:00:15.824Z,27.76
2023-05-21T14:03:18.200Z,27.69
2023-05-21T14:06:21.254Z,27.62
2023-05-21T14:09:27.278Z,27.15
2023-05-21T14:12:29.816Z,27.16
2023-05-21T14:15:32.397Z,27.21
2023-05-21T14:18:34.244Z,27.66
2023-05-21T14:21:36.734Z,27.20
2023-05-21T14:24:40.033Z,27.58
2023-05-21T14:27:41.858Z,27.18
2023-05-21T14:30:44.742Z,26.98
2023-05-21T14:33:46.612Z,26.49
2023-05-21T14:36:48.474Z,26.38
2023-05-21T14:39:51.687Z,26.35
2023-05-21T14:42:53.552Z,26.24
2023-05-21T14:45:55.727Z,26.67
2023-05-21T14:49:00.726Z,26.15
2023-05-21T14:52:03.830Z,26.15
2023-05-21T14:55:08.005Z,26.41
2023-05-21T14:58:10.581Z,26.30
2023-05-21T15:01:12.493Z,25.79
2023-05-21T15:04:14.538Z,25.61
2023-05-21T15:07:16.525Z,25.41
2023-05-21T15:10:19.800Z,25.79
2023-05-21T15:13:22.629Z,25.70
2023-05-21T15:16:24.625Z,25.74
2023-05-21T15:19:26.636Z,25.76
2023-05-21T15:22:28.509Z,25.89
2023-05-21T15:25:31.909Z,25.90
2023-05-21T15:28:33.809Z,25.88
2023-05-21T15:31:35.667Z,25.83
2023-05-21T15:34:38.601Z,25.96
2023-05-21T15:37:40.611Z,25.91
2023-05-21T15:40:44.348Z,25.80
2023-05-21T15:43:46.286Z,25.89
2023-05-21T15:46:51.479Z,25.80
2023-05-21T15:49:53.512Z,25.75
2023-05-21T15:52:55.377Z,25.74
2023-05-21T15:55:58.829Z,25.66
2023-05-21T15:59:01.554Z,25.16
2023-05-21T16:02:03.430Z,25.01
2023-05-21T16:05:05.884Z,24.86
2023-05-21T16:08:10.751Z,24.93
2023-05-21T16:11:14.646Z,25.05
2023-05-21T16:14:16.491Z,25.02
2023-05-21T16:17:19.803Z,24.93
2023-05-21T16:20:22.422Z,24.88
2023-05-21T16:23:24.425Z,25.12
2023-05-21T16:26:27.655Z,24.60
2023-05-21T16:29:30.434Z,24.08
2023-05-21T16:32:33.170Z,24.69
2023-05-21T16:35:35.345Z,24.37
2023-05-21T16:38:38.261Z,24.44
2023-05-21T16:41:43.433Z,24.27
2023-05-21T16:44:45.381Z,23.61
2023-05-21T16:47:48.096Z,23.44
2023-05-21T16:50:50.308Z,24.06
2023-05-21T16:53:52.267Z,23.63
2023-05-21T16:56:55.856Z,23.33
2023-05-21T16:59:57.885Z,22.92
2023-05-21T17:03:00.574Z,22.76
2023-05-21T17:06:02.475Z,22.81
2023-05-21T17:09:05.462Z,22.52
2023-05-21T17:12:08.905Z,22.74
2023-05-21T17:15:10.940Z,22.46
2023-05-21T17:18:13.419Z,22.27
2023-05-21T17:21:15.464Z,21.98
2023-05-21T17:24:17.533Z,21.72
2023-05-21T17:27:21.619Z,21.55
2023-05-21T17:30:23.505Z,21.27
2023-05-21T17:33:26.541Z,21.26
2023-05-21T17:36:28.524Z,20.85
2023-05-21T17:39:30.390Z,20.80
2023-05-21T17:42:34.610Z,20.80
2023-05-21T17:45:36.608Z,20.58
2023-05-21T17:48:38.635Z,20.50
2023-05-21T17:51:41.198Z,20.41
2023-05-21T17:54:43.075Z,20.11
2023-05-21T17:57:46.607Z,20.19
2023-05-21T18:00:48.496Z,19.80
2023-05-21T18:03:51.194Z,19.90
2023-05-21T18:06:53.199Z,19.74
2023-05-21T18:09:55.149Z,19.89
2023-05-21T18:12:58.386Z,20.48
2023-05-21T18:16:00.328Z,20.31
2023-05-21T18:19:05.966Z,20.02
2023-05-21T18:22:08.134Z,19.71
2023-05-21T18:25:10.946Z,19.45
2023-05-21T18:28:14.211Z,19.46
2023-05-21T18:31:17.344Z,19.67
2023-05-21T18:34:20.096Z,19.56
2023-05-21T18:37:22.011Z,19.17
2023-05-21T18:40:25.736Z,19.11
2023-05-21T18:43:31.640Z,19.01
2023-05-21T18:46:33.782Z,18.88
2023-05-21T18:49:36.367Z,19.00
2023-05-21T18:52:38.797Z,18.84
2023-05-21T18:55:41.125Z,18.98
2023-05-21T18:58:44.392Z,19.14
2023-05-21T19:01:46.378Z,18.92
2023-05-21T19:04:48.923Z,18.92
2023-05-21T19:07:51.048Z,18.76
2023-05-21T19:10:53.076Z,18.86
2023-05-21T19:14:00.855Z,18.65
2023-05-21T19:17:02.797Z,18.17
2023-05-21T19:20:05.883Z,18.46
2023-05-21T19:23:10.515Z,18.72
2023-05-21T19:26:21.584Z,18.30
2023-05-21T19:29:27.189Z,18.22
2023-05-21T19:32:31.422Z,18.72
2023-05-21T19:35:33.345Z,18.56
2023-05-21T19:38:36.203Z,18.48
2023-05-21T19:41:38.177Z,18.42
2023-05-21T19:44:42.403Z,18.38
2023-05-21T19:47:44.351Z,18.33
2023-05-21T19:50:46.968Z,18.39
2023-05-21T19:53:48.895Z,18.35
2023-05-21T19:56:51.637Z,18.52
2023-05-21T19:59:54.802Z,18.39
2023-05-21T20:02:56.909Z,18.30
2023-05-21T20:05:58.842Z,18.58
2023-05-21T20:09:00.954Z,18.66
2023-05-21T20:12:03.491Z,18.74
2023-05-21T20:15:07.954Z,18.71
2023-05-21T20:18:09.894Z,18.78
2023-05-21T20:21:11.844Z,18.84
2023-05-21T20:24:16.087Z,18.89
2023-05-21T20:27:19.639Z,18.99
2023-05-21T20:30:23.150Z,18.92
2023-05-21T20:33:25.599Z,19.03
2023-05-21T20:36:30.504Z,18.95
2023-05-21T20:39:32.574Z,18.83
2023-05-21T20:42:35.296Z,18.48
2023-05-21T20:45:39.532Z,18.30
2023-05-21T20:48:41.883Z,18.04
2023-05-21T20:51:44.880Z,17.97
2023-05-21T20:54:46.798Z,18.20
2023-05-21T20:57:48.786Z,18.29
2023-05-21T21:00:52.034Z,18.14
2023-05-21T21:03:54.042Z,18.08
2023-05-21T21:06:56.676Z,18.02
2023-05-21T21:09:59.775Z,18.17
2023-05-21T21:13:01.644Z,18.13
2023-05-21T21:16:06.183Z,18.40
2023-05-21T21:19:08.078Z,18.44
2023-05-21T21:22:10.919Z,18.45
2023-05-21T21:25:14.006Z,18.50
2023-05-21T21:28:16.017Z,18.43
2023-05-21T21:31:20.175Z,18.60
2023-05-21T21:34:23.612Z,18.33
2023-05-21T21:37:25.753Z,18.29
2023-05-21T21:40:27.768Z,18.33
2023-05-21T21:43:30.706Z,18.39
2023-05-21T21:46:34.105Z,18.55
2023-05-21T21:49:38.375Z,18.52
2023-05-21T21:52:40.781Z,18.75
2023-05-21T21:55:42.665Z,18.79
2023-05-21T21:58:44.592Z,18.99
2023-05-21T22:01:47.977Z,19.09
2023-05-21T22:04:50.809Z,19.10
2023-05-21T22:07:52.851Z,19.27
2023-05-21T22:10:54.786Z,19.42
2023-05-21T22:13:57.655Z,19.02
2023-05-21T22:17:01.096Z,19.35
2023-05-21T22:20:04.798Z,19.32
2023-05-21T22:23:06.687Z,19.18
2023-05-21T22:26:09.574Z,19.06
2023-05-21T22:29:11.612Z,18.99
2023-05-21T22:32:14.961Z,18.84
2023-05-21T22:35:17.569Z,18.68
2023-05-21T22:38:19.436Z,18.60
2023-05-21T22:41:22.912Z,18.57
2023-05-21T22:44:24.838Z,18.55
2023-05-21T22:47:28.935Z,18.51
2023-05-21T22:50:32.967Z,18.42
2023-05-21T22:53:35.640Z,18.31
2023-05-21T22:56:38.453Z,18.27
2023-05-21T22:59:40.296Z,18.24
2023-05-21T23:02:43.826Z,18.11
2023-05-21T23:05:46.080Z,18.08
2023-05-21T23:08:48.058Z,17.94
2023-05-21T23:11:50.632Z,17.91
2023-05-21T23:14:52.480Z,17.82
2023-05-21T23:17:55.916Z,17.94
2023-05-21T23:20:57.876Z,17.73
2023-05-21T23:23:59.780Z,17.57
2023-05-21T23:27:03.128Z,17.53
2023-05-21T23:30:05.898Z,17.73
2023-05-21T23:33:09.962Z,17.67
2023-05-21T23:36:11.966Z,17.65
2023-05-21T23:39:13.810Z,17.54
2023-05-21T23:42:16.036Z,17.42
2023-05-21T23:45:18.252Z,17.30
2023-05-21T23:48:21.880Z,17.19
2023-05-21T23:51:23.803Z,17.21
2023-05-21T23:54:25.847Z,17.17
2023-05-21T23:57:28.344Z,16.98
